Flight Track Log - Related Links

Times and Time Zones

All times are in EDT time to prevent confusion due to time zone crossing. See the RLI811 flight status page for this flight to view local times or setup timezone preferences in your user account.

Time Position Orientation Groundspeed Altitude Reporting Facility
EDT Latitude Longitude Course Direction KTS MPH feet Rate Location/Type
Mon 06:48:17 AM 41.6636 -70.4394 260° West 137 158 3,900  Level Boston Center
Mon 06:49:23 AM 41.6500 -70.4925 251° West 135 155 4,900 850 Climbing Boston Center
Mon 06:50:00 AM 41.6820 -70.6223 280° West  Level FlightAware Approximate
Mon 06:50:24 AM 41.6425 -70.5400 258° West 135 155 5,700  Level Boston Center
Mon 06:51:00 AM 41.6834 -70.6817 270° West  Level FlightAware Approximate
Mon 06:51:37 AM 41.6331 -70.5958 257° West 135 155 6,500  Level Boston Center
Mon 06:52:00 AM 41.6833 -70.7427 270° West  Level FlightAware Approximate
Mon 06:52:37 AM 41.6236 -70.6544 258° West 155 178 6,500  Level Boston Center
Mon 06:53:38 AM 41.6161 -70.7158 261° West 165 190 6,500  Level Boston Center
Mon 06:54:39 AM 41.6025 -70.7772 254° West 168 193 6,500  Level Boston Center
Mon 06:55:21 AM 41.5969 -70.8217 261° West 168 193 6,500  Level Boston Center
Mon 06:56:22 AM 41.5872 -70.8831 258° West 168 193 6,500  Level Boston Center
Mon 06:57:11 AM 41.5775 -70.9333 256° West 168 193 6,500  Level Boston Center
Mon 06:58:35 AM 41.5683 -71.0194 262° West 168 193 6,500  Level Boston Center
Mon 06:59:36 AM 41.5544 -71.0808 253° West 168 193 6,500  Level Boston Center
Mon 07:00:19 AM 41.5486 -71.1225 259° West 167 192 6,500  Level Boston Center
Mon 07:01:20 AM 41.5411 -71.1808 260° West 167 192 6,500  Level Boston Center
Mon 07:02:20 AM 41.5292 -71.2478 257° West 167 192 6,500  Level Boston Center
Mon 07:03:27 AM 41.5194 -71.3172 259° West 170 196 6,500  Level Boston Center
Mon 07:04:34 AM 41.5075 -71.3783 255° West 170 196 6,500  Level Boston Center
Mon 07:05:35 AM 41.4978 -71.4450 259° West 170 196 6,500  Level Boston Center
Mon 07:06:36 AM 41.4942 -71.5089 266° West 171 197 6,500  Level Boston Center
Mon 07:07:36 AM 41.4967 -71.5725 273° West 174 200 6,500  Level Boston Center
Mon 07:08:37 AM 41.4908 -71.6364 263° West 171 197 6,500  Level Boston Center
Mon 07:09:38 AM 41.4872 -71.6975 266° West 171 197 6,500  Level Boston Center
Mon 07:10:33 AM 41.4814 -71.7556 262° West 172 198 6,500  Level Boston Center
Mon 07:11:27 AM 41.4797 -71.8167 268° West 171 197 6,500  Level Boston Center
Mon 07:12:34 AM 41.4675 -71.8833 256° West 169 194 6,500  Level Boston Center
Mon 07:13:35 AM 41.4594 -71.9469 260° West 169 194 6,500  Level Boston Center
Mon 07:14:30 AM 41.4514 -72.0025 259° West 171 197 6,500  Level Boston Center
Mon 07:15:31 AM 41.4411 -72.0664 258° West 169 194 6,500  Level Boston Center
Mon 07:16:37 AM 41.4267 -72.1328 254° West 169 194 6,500  Level Boston Center
Mon 07:17:38 AM 41.4122 -72.1911 252° West 172 198 6,500  Level Boston Center
Mon 07:18:39 AM 41.4019 -72.2547 258° West 173 199 6,500 -38 Level Boston Center
Mon 07:20:17 AM 41.3833 -72.3500 255° West 169 194 6,400 -60 Descending New York TRACON
Mon 07:21:59 AM 41.3667 -72.4500 258° West 172 198 6,300 -222 Descending New York TRACON
Mon 07:22:59 AM 41.3667 -72.5167 270° West 185 213 5,800 -474 Descending New York TRACON
Mon 07:23:53 AM 41.3500 -72.5833 252° West 185 213 5,400 -389 Descending New York TRACON
Mon 07:24:47 AM 41.3500 -72.6500 270° West 189 217 5,100 -316 Descending New York TRACON
Mon 07:25:47 AM 41.3333 -72.7167 252° West 180 207 4,800 -400 Descending New York TRACON
Mon 07:26:47 AM 41.3167 -72.7667 246° West 184 212 4,300 -474 Descending New York TRACON
Mon 07:27:41 AM 41.3167 -72.8333 270° West 182 209 3,900 -222 Descending New York TRACON
Mon 07:28:35 AM 41.3000 -72.8833 246° West 176 203 3,900  Level New York TRACON
Mon 07:29:35 AM 41.3000 -72.9500 270° West 169 194 3,900  Level New York TRACON
Mon 07:30:35 AM 41.2667 -72.9833 217° Southwest 174 200 3,900  Level New York TRACON
Mon 07:31:35 AM 41.2167 -72.9833 180° South 171 197 3,900  Level New York TRACON
Mon 07:32:29 AM 41.1833 -72.9667 159° South 164 189 3,900  Level New York TRACON
Mon 07:33:29 AM 41.1500 -72.9833 201° Southwest 183 211 3,900  Level New York TRACON
Mon 07:34:29 AM 41.1667 -73.0500 288° West 171 197 3,900  Level New York TRACON
Mon 07:35:29 AM 41.1667 -73.1167 270° West 171 197 3,900  Level New York TRACON
Mon 07:36:23 AM 41.1667 -73.1667 270° West 169 194 3,900  Level New York TRACON
Mon 07:37:23 AM 41.1667 -73.2333 270° West 177 204 3,900  Level New York TRACON
Mon 07:38:29 AM 41.1667 -73.3000 270° West 177 204 3,900  Level New York TRACON
Mon 07:39:23 AM 41.1833 -73.3667 288° West 176 203 3,900 -53 Level New York TRACON
Mon 07:40:23 AM 41.1833 -73.4333 270° West 176 203 3,800 -300 Descending New York TRACON
Mon 07:41:23 AM 41.2000 -73.4833 294° West 214 246 3,300 -429 Descending New York TRACON
Mon 07:42:29 AM 41.2667 -73.4833 360° North 209 241 2,900 -200 Descending New York TRACON
Mon 07:43:23 AM 41.3167 -73.5000 346° North 209 241 2,900  Level New York TRACON
Mon 07:44:23 AM 41.3167 -73.5667 270° West 176 203 2,900  Level New York TRACON
Mon 07:45:23 AM 41.3167 -73.6333 270° West 172 198 2,900  Level New York TRACON
Mon 07:46:23 AM 41.3167 -73.7000 270° West 175 201 2,900  Level New York TRACON
Mon 07:47:23 AM 41.3000 -73.7500 246° West 170 196 2,900 -200 Level New York TRACON
Mon 07:48:23 AM 41.2833 -73.8000 246° West 169 194 2,500 -429 Descending New York TRACON
Mon 07:49:29 AM 41.2500 -73.8500 228° Southwest 173 199 2,000 -286 Descending New York TRACON
Mon 07:50:29 AM 41.2167 -73.8167 143° Southeast 159 183 1,900 -50 Descending New York TRACON
Mon 07:51:29 AM 41.1833 -73.7833 143° Southeast 141 162 1,900  Level New York TRACON
Mon 07:52:29 AM 41.1500 -73.7667 159° South 132 152 1,900 -350 Level New York TRACON
Mon 07:53:29 AM 41.1167 -73.7500 159° South 104 120 1,200 -550 Descending New York TRACON
Mon 07:54:29 AM 41.1000 -73.7333 143° Southeast 100 115 800 -400 Descending New York TRACON

Login

Don't have an account? Register now (free) for customized features, flight alerts, and more!